sensor_id;sensor_type;location;lat;lon;timestamp;P1;durP1;ratioP1;P2;durP2;ratioP2
68089;SDS011;54880;50.986;6.990;2023-07-31T00:00:42;11.33;;;3.20;;
68089;SDS011;54880;50.986;6.990;2023-07-31T00:03:07;8.20;;;2.93;;
68089;SDS011;54880;50.986;6.990;2023-07-31T00:05:32;14.00;;;2.70;;
68089;SDS011;54880;50.986;6.990;2023-07-31T00:07:58;10.00;;;2.97;;
68089;SDS011;54880;50.986;6.990;2023-07-31T00:10:23;11.43;;;3.00;;
68089;SDS011;54880;50.986;6.990;2023-07-31T00:12:48;8.83;;;2.73;;
68089;SDS011;54880;50.986;6.990;2023-07-31T00:15:14;9.73;;;3.50;;
68089;SDS011;54880;50.986;6.990;2023-07-31T00:17:39;8.40;;;2.90;;
68089;SDS011;54880;50.986;6.990;2023-07-31T00:20:05;7.90;;;2.87;;
68089;SDS011;54880;50.986;6.990;2023-07-31T00:22:30;9.00;;;2.70;;
68089;SDS011;54880;50.986;6.990;2023-07-31T00:24:56;9.50;;;3.03;;
68089;SDS011;54880;50.986;6.990;2023-07-31T00:27:21;10.63;;;3.33;;
68089;SDS011;54880;50.986;6.990;2023-07-31T00:29:46;9.13;;;3.17;;
68089;SDS011;54880;50.986;6.990;2023-07-31T00:32:12;9.55;;;3.42;;
68089;SDS011;54880;50.986;6.990;2023-07-31T00:34:37;10.48;;;3.20;;
68089;SDS011;54880;50.986;6.990;2023-07-31T00:37:02;12.10;;;3.05;;
68089;SDS011;54880;50.986;6.990;2023-07-31T00:39:29;9.20;;;3.10;;
68089;SDS011;54880;50.986;6.990;2023-07-31T00:41:55;8.65;;;2.70;;
68089;SDS011;54880;50.986;6.990;2023-07-31T00:44:20;11.87;;;2.97;;
68089;SDS011;54880;50.986;6.990;2023-07-31T00:46:45;11.27;;;3.00;;
68089;SDS011;54880;50.986;6.990;2023-07-31T00:49:10;9.73;;;2.90;;
68089;SDS011;54880;50.986;6.990;2023-07-31T00:51:36;12.27;;;3.00;;
68089;SDS011;54880;50.986;6.990;2023-07-31T00:54:01;9.73;;;3.30;;
68089;SDS011;54880;50.986;6.990;2023-07-31T00:56:27;9.43;;;2.58;;
68089;SDS011;54880;50.986;6.990;2023-07-31T00:58:53;7.97;;;2.60;;
68089;SDS011;54880;50.986;6.990;2023-07-31T01:01:18;10.33;;;3.10;;
68089;SDS011;54880;50.986;6.990;2023-07-31T01:03:44;8.88;;;2.85;;
68089;SDS011;54880;50.986;6.990;2023-07-31T01:11:39;9.25;;;2.85;;
68089;SDS011;54880;50.986;6.990;2023-07-31T01:14:07;10.77;;;3.00;;
68089;SDS011;54880;50.986;6.990;2023-07-31T01:16:33;10.60;;;2.80;;
68089;SDS011;54880;50.986;6.990;2023-07-31T01:18:58;9.90;;;2.77;;
68089;SDS011;54880;50.986;6.990;2023-07-31T01:26:21;10.05;;;2.65;;
68089;SDS011;54880;50.986;6.990;2023-07-31T01:29:06;10.98;;;3.05;;
68089;SDS011;54880;50.986;6.990;2023-07-31T01:31:32;10.80;;;2.88;;
68089;SDS011;54880;50.986;6.990;2023-07-31T01:33:58;8.97;;;2.50;;
68089;SDS011;54880;50.986;6.990;2023-07-31T01:36:24;13.37;;;3.30;;
68089;SDS011;54880;50.986;6.990;2023-07-31T01:38:50;9.52;;;2.40;;
68089;SDS011;54880;50.986;6.990;2023-07-31T01:41:18;11.00;;;2.70;;
68089;SDS011;54880;50.986;6.990;2023-07-31T01:43:44;10.40;;;2.90;;
68089;SDS011;54880;50.986;6.990;2023-07-31T01:46:10;8.43;;;2.40;;
68089;SDS011;54880;50.986;6.990;2023-07-31T01:48:35;9.87;;;2.83;;
68089;SDS011;54880;50.986;6.990;2023-07-31T01:51:02;8.90;;;2.90;;
68089;SDS011;54880;50.986;6.990;2023-07-31T01:53:27;8.73;;;2.40;;
68089;SDS011;54880;50.986;6.990;2023-07-31T01:55:52;10.27;;;2.57;;
68089;SDS011;54880;50.986;6.990;2023-07-31T01:58:18;10.90;;;3.10;;
68089;SDS011;54880;50.986;6.990;2023-07-31T02:00:43;11.37;;;2.73;;
68089;SDS011;54880;50.986;6.990;2023-07-31T02:03:08;7.80;;;2.47;;
68089;SDS011;54880;50.986;6.990;2023-07-31T02:05:33;13.00;;;2.77;;
68089;SDS011;54880;50.986;6.990;2023-07-31T02:07:59;10.80;;;2.85;;
68089;SDS011;54880;50.986;6.990;2023-07-31T02:10:26;10.10;;;3.08;;
68089;SDS011;54880;50.986;6.990;2023-07-31T02:12:51;8.30;;;2.60;;
68089;SDS011;54880;50.986;6.990;2023-07-31T02:15:17;8.47;;;3.13;;
68089;SDS011;54880;50.986;6.990;2023-07-31T02:17:42;8.17;;;2.60;;
68089;SDS011;54880;50.986;6.990;2023-07-31T02:20:07;11.03;;;2.90;;
68089;SDS011;54880;50.986;6.990;2023-07-31T02:22:33;8.90;;;2.67;;
68089;SDS011;54880;50.986;6.990;2023-07-31T02:24:58;10.30;;;2.53;;
68089;SDS011;54880;50.986;6.990;2023-07-31T02:27:23;10.87;;;3.00;;
68089;SDS011;54880;50.986;6.990;2023-07-31T02:29:52;10.63;;;2.90;;
68089;SDS011;54880;50.986;6.990;2023-07-31T02:32:17;9.13;;;2.30;;
68089;SDS011;54880;50.986;6.990;2023-07-31T02:34:42;12.50;;;2.53;;
68089;SDS011;54880;50.986;6.990;2023-07-31T02:37:08;10.17;;;3.10;;
68089;SDS011;54880;50.986;6.990;2023-07-31T02:39:33;8.93;;;2.47;;
68089;SDS011;54880;50.986;6.990;2023-07-31T02:41:59;8.60;;;2.60;;
68089;SDS011;54880;50.986;6.990;2023-07-31T02:44:25;11.75;;;3.22;;
68089;SDS011;54880;50.986;6.990;2023-07-31T02:46:50;10.10;;;2.63;;
68089;SDS011;54880;50.986;6.990;2023-07-31T02:49:15;8.00;;;2.67;;
68089;SDS011;54880;50.986;6.990;2023-07-31T02:51:41;8.70;;;2.50;;
68089;SDS011;54880;50.986;6.990;2023-07-31T02:54:06;8.83;;;2.50;;
68089;SDS011;54880;50.986;6.990;2023-07-31T02:56:31;9.97;;;2.70;;
68089;SDS011;54880;50.986;6.990;2023-07-31T02:58:56;11.53;;;2.83;;
68089;SDS011;54880;50.986;6.990;2023-07-31T03:01:22;8.50;;;2.50;;
68089;SDS011;54880;50.986;6.990;2023-07-31T03:03:47;11.97;;;2.80;;
68089;SDS011;54880;50.986;6.990;2023-07-31T03:06:12;10.00;;;2.90;;
68089;SDS011;54880;50.986;6.990;2023-07-31T03:08:37;10.27;;;2.80;;
68089;SDS011;54880;50.986;6.990;2023-07-31T03:11:03;12.00;;;3.10;;
68089;SDS011;54880;50.986;6.990;2023-07-31T03:13:28;11.90;;;2.70;;
68089;SDS011;54880;50.986;6.990;2023-07-31T03:15:53;9.50;;;2.73;;
68089;SDS011;54880;50.986;6.990;2023-07-31T03:18:18;7.57;;;2.77;;
68089;SDS011;54880;50.986;6.990;2023-07-31T03:20:44;9.10;;;2.90;;
68089;SDS011;54880;50.986;6.990;2023-07-31T03:23:09;11.87;;;2.87;;
68089;SDS011;54880;50.986;6.990;2023-07-31T03:25:34;8.77;;;2.67;;
68089;SDS011;54880;50.986;6.990;2023-07-31T03:28:00;10.85;;;3.10;;
68089;SDS011;54880;50.986;6.990;2023-07-31T03:30:25;9.00;;;2.72;;
68089;SDS011;54880;50.986;6.990;2023-07-31T03:32:51;8.50;;;2.63;;
68089;SDS011;54880;50.986;6.990;2023-07-31T03:35:16;9.87;;;3.03;;
68089;SDS011;54880;50.986;6.990;2023-07-31T03:37:41;10.97;;;2.93;;
68089;SDS011;54880;50.986;6.990;2023-07-31T03:40:07;15.07;;;3.35;;
68089;SDS011;54880;50.986;6.990;2023-07-31T03:42:32;11.30;;;3.00;;
68089;SDS011;54880;50.986;6.990;2023-07-31T03:44:57;9.13;;;2.93;;
68089;SDS011;54880;50.986;6.990;2023-07-31T03:47:23;10.57;;;2.70;;
68089;SDS011;54880;50.986;6.990;2023-07-31T03:49:48;9.93;;;3.30;;
68089;SDS011;54880;50.986;6.990;2023-07-31T03:52:14;10.73;;;3.13;;
68089;SDS011;54880;50.986;6.990;2023-07-31T03:54:39;10.83;;;2.80;;
68089;SDS011;54880;50.986;6.990;2023-07-31T03:57:04;10.00;;;3.00;;
68089;SDS011;54880;50.986;6.990;2023-07-31T03:59:29;9.73;;;3.17;;
68089;SDS011;54880;50.986;6.990;2023-07-31T04:01:55;10.60;;;3.20;;
68089;SDS011;54880;50.986;6.990;2023-07-31T04:04:20;11.10;;;3.03;;
68089;SDS011;54880;50.986;6.990;2023-07-31T04:06:45;11.57;;;3.30;;
68089;SDS011;54880;50.986;6.990;2023-07-31T04:09:10;9.13;;;2.92;;
68089;SDS011;54880;50.986;6.990;2023-07-31T04:11:36;10.85;;;3.42;;
68089;SDS011;54880;50.986;6.990;2023-07-31T04:14:01;11.48;;;3.13;;
68089;SDS011;54880;50.986;6.990;2023-07-31T04:16:26;10.77;;;3.50;;
68089;SDS011;54880;50.986;6.990;2023-07-31T04:18:51;8.27;;;3.17;;
68089;SDS011;54880;50.986;6.990;2023-07-31T04:21:17;11.10;;;3.40;;
68089;SDS011;54880;50.986;6.990;2023-07-31T04:23:42;9.03;;;3.30;;
68089;SDS011;54880;50.986;6.990;2023-07-31T04:26:08;12.00;;;3.50;;
68089;SDS011;54880;50.986;6.990;2023-07-31T04:28:33;11.20;;;3.53;;
68089;SDS011;54880;50.986;6.990;2023-07-31T04:30:58;10.27;;;3.60;;
68089;SDS011;54880;50.986;6.990;2023-07-31T04:33:24;9.70;;;3.30;;
68089;SDS011;54880;50.986;6.990;2023-07-31T04:35:52;12.97;;;3.17;;
68089;SDS011;54880;50.986;6.990;2023-07-31T04:38:18;10.82;;;3.00;;
68089;SDS011;54880;50.986;6.990;2023-07-31T04:40:44;10.90;;;3.28;;
68089;SDS011;54880;50.986;6.990;2023-07-31T04:43:09;11.07;;;3.90;;
68089;SDS011;54880;50.986;6.990;2023-07-31T04:45:34;10.77;;;3.70;;
68089;SDS011;54880;50.986;6.990;2023-07-31T04:47:59;10.73;;;3.20;;
68089;SDS011;54880;50.986;6.990;2023-07-31T04:50:25;9.27;;;3.70;;
68089;SDS011;54880;50.986;6.990;2023-07-31T04:52:50;10.83;;;3.43;;
68089;SDS011;54880;50.986;6.990;2023-07-31T04:55:15;13.97;;;3.53;;
68089;SDS011;54880;50.986;6.990;2023-07-31T04:57:40;10.17;;;3.47;;
68089;SDS011;54880;50.986;6.990;2023-07-31T05:00:06;11.67;;;3.40;;
68089;SDS011;54880;50.986;6.990;2023-07-31T05:02:31;11.13;;;3.20;;
68089;SDS011;54880;50.986;6.990;2023-07-31T05:04:56;9.77;;;3.50;;
68089;SDS011;54880;50.986;6.990;2023-07-31T05:07:22;11.10;;;3.70;;
68089;SDS011;54880;50.986;6.990;2023-07-31T05:09:47;11.60;;;3.57;;
68089;SDS011;54880;50.986;6.990;2023-07-31T05:12:13;8.97;;;3.50;;
68089;SDS011;54880;50.986;6.990;2023-07-31T05:14:38;8.70;;;3.10;;
68089;SDS011;54880;50.986;6.990;2023-07-31T05:17:03;9.23;;;3.40;;
68089;SDS011;54880;50.986;6.990;2023-07-31T05:19:29;8.10;;;3.17;;
68089;SDS011;54880;50.986;6.990;2023-07-31T05:21:54;10.07;;;3.60;;
68089;SDS011;54880;50.986;6.990;2023-07-31T05:24:19;10.17;;;3.13;;
68089;SDS011;54880;50.986;6.990;2023-07-31T05:26:44;9.07;;;3.22;;
68089;SDS011;54880;50.986;6.990;2023-07-31T05:29:10;9.50;;;3.05;;
68089;SDS011;54880;50.986;6.990;2023-07-31T05:31:35;8.88;;;3.03;;
68089;SDS011;54880;50.986;6.990;2023-07-31T05:34:00;11.70;;;3.10;;
68089;SDS011;54880;50.986;6.990;2023-07-31T05:36:25;9.02;;;3.30;;
68089;SDS011;54880;50.986;6.990;2023-07-31T05:38:51;9.03;;;3.10;;
68089;SDS011;54880;50.986;6.990;2023-07-31T05:41:16;7.83;;;3.20;;
68089;SDS011;54880;50.986;6.990;2023-07-31T05:43:41;8.40;;;3.63;;
68089;SDS011;54880;50.986;6.990;2023-07-31T05:46:08;13.60;;;4.23;;
68089;SDS011;54880;50.986;6.990;2023-07-31T05:48:34;8.70;;;3.38;;
68089;SDS011;54880;50.986;6.990;2023-07-31T05:50:59;12.13;;;3.90;;
68089;SDS011;54880;50.986;6.990;2023-07-31T05:53:24;8.45;;;3.28;;
68089;SDS011;54880;50.986;6.990;2023-07-31T05:55:50;10.77;;;3.60;;
68089;SDS011;54880;50.986;6.990;2023-07-31T05:58:15;9.80;;;3.05;;
68089;SDS011;54880;50.986;6.990;2023-07-31T06:00:40;8.75;;;3.10;;
68089;SDS011;54880;50.986;6.990;2023-07-31T06:03:06;8.95;;;3.55;;
68089;SDS011;54880;50.986;6.990;2023-07-31T06:05:31;10.80;;;3.60;;
68089;SDS011;54880;50.986;6.990;2023-07-31T06:07:57;9.03;;;3.27;;
68089;SDS011;54880;50.986;6.990;2023-07-31T06:10:22;10.27;;;3.90;;
68089;SDS011;54880;50.986;6.990;2023-07-31T06:12:47;8.67;;;3.37;;
68089;SDS011;54880;50.986;6.990;2023-07-31T06:15:12;11.53;;;3.47;;
68089;SDS011;54880;50.986;6.990;2023-07-31T06:17:38;9.30;;;3.80;;
68089;SDS011;54880;50.986;6.990;2023-07-31T06:20:03;11.03;;;3.43;;
68089;SDS011;54880;50.986;6.990;2023-07-31T06:22:30;9.02;;;3.20;;
68089;SDS011;54880;50.986;6.990;2023-07-31T06:24:55;10.73;;;3.05;;
68089;SDS011;54880;50.986;6.990;2023-07-31T06:27:20;14.10;;;4.00;;
68089;SDS011;54880;50.986;6.990;2023-07-31T06:29:46;11.57;;;3.67;;
68089;SDS011;54880;50.986;6.990;2023-07-31T06:32:11;11.37;;;3.23;;
68089;SDS011;54880;50.986;6.990;2023-07-31T06:34:36;9.70;;;3.63;;
68089;SDS011;54880;50.986;6.990;2023-07-31T06:37:01;9.47;;;3.33;;
68089;SDS011;54880;50.986;6.990;2023-07-31T06:39:27;8.80;;;3.47;;
68089;SDS011;54880;50.986;6.990;2023-07-31T06:41:52;9.47;;;3.50;;
68089;SDS011;54880;50.986;6.990;2023-07-31T06:44:18;10.05;;;3.55;;
68089;SDS011;54880;50.986;6.990;2023-07-31T06:46:43;13.73;;;3.58;;
68089;SDS011;54880;50.986;6.990;2023-07-31T06:49:08;9.27;;;3.38;;
68089;SDS011;54880;50.986;6.990;2023-07-31T06:51:34;9.20;;;3.58;;
68089;SDS011;54880;50.986;6.990;2023-07-31T06:54:01;10.57;;;3.30;;
68089;SDS011;54880;50.986;6.990;2023-07-31T06:56:26;10.27;;;3.07;;
68089;SDS011;54880;50.986;6.990;2023-07-31T06:58:52;10.10;;;3.28;;
68089;SDS011;54880;50.986;6.990;2023-07-31T07:01:17;9.93;;;3.30;;
68089;SDS011;54880;50.986;6.990;2023-07-31T07:03:43;9.97;;;3.23;;
68089;SDS011;54880;50.986;6.990;2023-07-31T07:06:08;11.87;;;3.40;;
68089;SDS011;54880;50.986;6.990;2023-07-31T07:08:33;9.83;;;3.40;;
68089;SDS011;54880;50.986;6.990;2023-07-31T07:10:58;8.20;;;2.97;;
68089;SDS011;54880;50.986;6.990;2023-07-31T07:13:24;8.97;;;3.40;;
68089;SDS011;54880;50.986;6.990;2023-07-31T07:15:49;10.70;;;3.63;;
68089;SDS011;54880;50.986;6.990;2023-07-31T07:18:14;9.25;;;3.28;;
68089;SDS011;54880;50.986;6.990;2023-07-31T07:20:41;11.20;;;3.40;;
68089;SDS011;54880;50.986;6.990;2023-07-31T07:23:10;11.33;;;3.47;;
68089;SDS011;54880;50.986;6.990;2023-07-31T07:25:37;8.82;;;3.47;;
68089;SDS011;54880;50.986;6.990;2023-07-31T07:28:02;9.52;;;3.50;;
68089;SDS011;54880;50.986;6.990;2023-07-31T07:30:27;12.27;;;3.20;;
68089;SDS011;54880;50.986;6.990;2023-07-31T07:32:53;8.03;;;3.33;;
68089;SDS011;54880;50.986;6.990;2023-07-31T07:35:18;9.57;;;3.40;;
68089;SDS011;54880;50.986;6.990;2023-07-31T07:37:43;10.53;;;3.40;;
68089;SDS011;54880;50.986;6.990;2023-07-31T07:40:09;10.20;;;3.60;;
68089;SDS011;54880;50.986;6.990;2023-07-31T07:42:34;8.57;;;3.20;;
68089;SDS011;54880;50.986;6.990;2023-07-31T07:44:59;10.03;;;3.10;;
68089;SDS011;54880;50.986;6.990;2023-07-31T07:47:24;8.60;;;2.93;;
68089;SDS011;54880;50.986;6.990;2023-07-31T07:49:49;11.40;;;3.13;;
68089;SDS011;54880;50.986;6.990;2023-07-31T07:52:15;9.10;;;3.60;;
68089;SDS011;54880;50.986;6.990;2023-07-31T07:54:40;10.43;;;3.57;;
68089;SDS011;54880;50.986;6.990;2023-07-31T07:57:05;9.50;;;3.37;;
68089;SDS011;54880;50.986;6.990;2023-07-31T07:59:30;11.13;;;3.17;;
68089;SDS011;54880;50.986;6.990;2023-07-31T08:01:56;10.27;;;3.60;;
68089;SDS011;54880;50.986;6.990;2023-07-31T08:04:22;9.90;;;3.83;;
68089;SDS011;54880;50.986;6.990;2023-07-31T08:06:47;9.45;;;3.30;;
68089;SDS011;54880;50.986;6.990;2023-07-31T08:09:13;9.35;;;3.17;;
68089;SDS011;54880;50.986;6.990;2023-07-31T08:11:38;8.73;;;2.80;;
68089;SDS011;54880;50.986;6.990;2023-07-31T08:14:03;6.60;;;2.50;;
68089;SDS011;54880;50.986;6.990;2023-07-31T08:16:28;9.00;;;2.80;;
68089;SDS011;54880;50.986;6.990;2023-07-31T08:18:54;11.97;;;3.20;;
68089;SDS011;54880;50.986;6.990;2023-07-31T08:21:19;8.73;;;2.67;;
68089;SDS011;54880;50.986;6.990;2023-07-31T08:23:44;7.43;;;2.60;;
68089;SDS011;54880;50.986;6.990;2023-07-31T08:26:18;11.67;;;3.13;;
68089;SDS011;54880;50.986;6.990;2023-07-31T08:28:44;7.90;;;2.60;;
68089;SDS011;54880;50.986;6.990;2023-07-31T08:31:09;10.77;;;3.37;;
68089;SDS011;54880;50.986;6.990;2023-07-31T08:33:35;8.30;;;2.40;;
68089;SDS011;54880;50.986;6.990;2023-07-31T08:36:00;7.55;;;2.53;;
68089;SDS011;54880;50.986;6.990;2023-07-31T08:38:26;7.75;;;2.65;;
68089;SDS011;54880;50.986;6.990;2023-07-31T08:40:51;8.40;;;2.47;;
68089;SDS011;54880;50.986;6.990;2023-07-31T08:43:17;8.03;;;2.80;;
68089;SDS011;54880;50.986;6.990;2023-07-31T08:45:43;8.90;;;2.53;;
68089;SDS011;54880;50.986;6.990;2023-07-31T08:48:09;6.90;;;2.80;;
68089;SDS011;54880;50.986;6.990;2023-07-31T08:50:34;8.68;;;2.67;;
68089;SDS011;54880;50.986;6.990;2023-07-31T08:53:00;8.07;;;2.43;;
68089;SDS011;54880;50.986;6.990;2023-07-31T08:55:26;7.70;;;2.50;;
68089;SDS011;54880;50.986;6.990;2023-07-31T08:57:51;10.18;;;2.58;;
68089;SDS011;54880;50.986;6.990;2023-07-31T09:00:18;7.93;;;2.60;;
68089;SDS011;54880;50.986;6.990;2023-07-31T09:05:50;8.32;;;2.92;;
68089;SDS011;54880;50.986;6.990;2023-07-31T09:08:18;8.18;;;2.72;;
68089;SDS011;54880;50.986;6.990;2023-07-31T09:10:43;7.80;;;2.63;;
68089;SDS011;54880;50.986;6.990;2023-07-31T09:13:10;9.63;;;2.83;;
68089;SDS011;54880;50.986;6.990;2023-07-31T09:15:36;8.07;;;2.57;;
68089;SDS011;54880;50.986;6.990;2023-07-31T09:18:02;9.82;;;2.70;;
68089;SDS011;54880;50.986;6.990;2023-07-31T09:20:28;8.82;;;3.03;;
68089;SDS011;54880;50.986;6.990;2023-07-31T09:22:53;7.87;;;2.70;;
68089;SDS011;54880;50.986;6.990;2023-07-31T09:25:23;7.68;;;2.75;;
68089;SDS011;54880;50.986;6.990;2023-07-31T09:27:56;7.60;;;3.17;;
68089;SDS011;54880;50.986;6.990;2023-07-31T09:30:22;9.13;;;2.70;;
68089;SDS011;54880;50.986;6.990;2023-07-31T09:32:48;8.65;;;2.80;;
68089;SDS011;54880;50.986;6.990;2023-07-31T09:35:20;8.63;;;2.60;;
68089;SDS011;54880;50.986;6.990;2023-07-31T09:37:49;8.38;;;2.58;;
68089;SDS011;54880;50.986;6.990;2023-07-31T09:40:24;7.32;;;2.70;;
68089;SDS011;54880;50.986;6.990;2023-07-31T09:42:50;7.50;;;2.27;;
68089;SDS011;54880;50.986;6.990;2023-07-31T09:45:15;8.23;;;2.33;;
68089;SDS011;54880;50.986;6.990;2023-07-31T09:47:45;6.90;;;2.33;;
68089;SDS011;54880;50.986;6.990;2023-07-31T09:50:11;8.60;;;2.13;;
68089;SDS011;54880;50.986;6.990;2023-07-31T09:52:38;8.00;;;2.80;;
68089;SDS011;54880;50.986;6.990;2023-07-31T09:55:03;7.43;;;2.88;;
68089;SDS011;54880;50.986;6.990;2023-07-31T09:57:28;6.90;;;2.30;;
68089;SDS011;54880;50.986;6.990;2023-07-31T09:59:54;8.52;;;2.88;;
68089;SDS011;54880;50.986;6.990;2023-07-31T10:02:20;6.73;;;2.20;;
68089;SDS011;54880;50.986;6.990;2023-07-31T10:04:46;8.82;;;2.60;;
68089;SDS011;54880;50.986;6.990;2023-07-31T10:07:13;7.07;;;2.42;;
68089;SDS011;54880;50.986;6.990;2023-07-31T10:09:39;9.20;;;2.70;;
68089;SDS011;54880;50.986;6.990;2023-07-31T10:12:04;9.07;;;2.28;;
68089;SDS011;54880;50.986;6.990;2023-07-31T10:14:34;9.30;;;2.80;;
68089;SDS011;54880;50.986;6.990;2023-07-31T10:16:59;8.48;;;2.60;;
68089;SDS011;54880;50.986;6.990;2023-07-31T10:19:24;7.10;;;2.47;;
68089;SDS011;54880;50.986;6.990;2023-07-31T10:21:51;7.43;;;2.80;;
68089;SDS011;54880;50.986;6.990;2023-07-31T10:24:17;7.38;;;2.63;;
68089;SDS011;54880;50.986;6.990;2023-07-31T10:26:42;8.80;;;2.73;;
68089;SDS011;54880;50.986;6.990;2023-07-31T10:29:09;10.20;;;2.53;;
68089;SDS011;54880;50.986;6.990;2023-07-31T10:31:34;6.40;;;2.37;;
68089;SDS011;54880;50.986;6.990;2023-07-31T10:34:00;9.27;;;2.80;;
68089;SDS011;54880;50.986;6.990;2023-07-31T10:36:25;8.25;;;2.63;;
68089;SDS011;54880;50.986;6.990;2023-07-31T10:38:52;7.57;;;2.50;;
68089;SDS011;54880;50.986;6.990;2023-07-31T10:41:17;6.55;;;2.60;;
68089;SDS011;54880;50.986;6.990;2023-07-31T10:43:42;8.93;;;2.60;;
68089;SDS011;54880;50.986;6.990;2023-07-31T10:46:08;8.70;;;2.80;;
68089;SDS011;54880;50.986;6.990;2023-07-31T10:48:34;8.55;;;2.60;;
68089;SDS011;54880;50.986;6.990;2023-07-31T10:51:02;6.83;;;2.30;;
68089;SDS011;54880;50.986;6.990;2023-07-31T10:53:31;6.85;;;2.55;;
68089;SDS011;54880;50.986;6.990;2023-07-31T10:55:57;6.93;;;2.28;;
68089;SDS011;54880;50.986;6.990;2023-07-31T10:58:23;6.68;;;2.40;;
68089;SDS011;54880;50.986;6.990;2023-07-31T11:00:48;6.00;;;1.93;;
68089;SDS011;54880;50.986;6.990;2023-07-31T11:03:17;6.23;;;1.87;;
68089;SDS011;54880;50.986;6.990;2023-07-31T11:05:47;9.23;;;2.13;;
68089;SDS011;54880;50.986;6.990;2023-07-31T11:10:48;7.57;;;1.95;;
68089;SDS011;54880;50.986;6.990;2023-07-31T11:13:13;5.45;;;1.58;;
68089;SDS011;54880;50.986;6.990;2023-07-31T11:15:39;6.03;;;1.50;;
68089;SDS011;54880;50.986;6.990;2023-07-31T11:18:04;7.83;;;1.90;;
68089;SDS011;54880;50.986;6.990;2023-07-31T11:20:33;7.65;;;1.90;;
68089;SDS011;54880;50.986;6.990;2023-07-31T11:23:02;5.95;;;1.60;;
68089;SDS011;54880;50.986;6.990;2023-07-31T11:25:31;6.63;;;2.38;;
68089;SDS011;54880;50.986;6.990;2023-07-31T11:27:57;5.87;;;1.70;;
68089;SDS011;54880;50.986;6.990;2023-07-31T11:30:22;6.82;;;1.40;;
68089;SDS011;54880;50.986;6.990;2023-07-31T11:32:47;6.10;;;1.50;;
68089;SDS011;54880;50.986;6.990;2023-07-31T11:35:13;6.13;;;1.73;;
68089;SDS011;54880;50.986;6.990;2023-07-31T11:37:41;4.50;;;1.50;;
68089;SDS011;54880;50.986;6.990;2023-07-31T11:40:07;5.72;;;1.52;;
68089;SDS011;54880;50.986;6.990;2023-07-31T11:42:33;5.00;;;1.37;;
68089;SDS011;54880;50.986;6.990;2023-07-31T11:44:58;6.00;;;1.45;;
68089;SDS011;54880;50.986;6.990;2023-07-31T11:47:26;5.80;;;1.20;;
68089;SDS011;54880;50.986;6.990;2023-07-31T11:49:51;4.70;;;1.00;;
68089;SDS011;54880;50.986;6.990;2023-07-31T11:52:17;4.27;;;1.10;;
68089;SDS011;54880;50.986;6.990;2023-07-31T11:54:44;3.67;;;0.98;;
68089;SDS011;54880;50.986;6.990;2023-07-31T11:57:09;4.60;;;1.10;;
68089;SDS011;54880;50.986;6.990;2023-07-31T11:59:35;4.50;;;1.30;;
68089;SDS011;54880;50.986;6.990;2023-07-31T12:02:00;4.00;;;1.07;;
68089;SDS011;54880;50.986;6.990;2023-07-31T12:04:26;4.20;;;1.30;;
68089;SDS011;54880;50.986;6.990;2023-07-31T12:06:52;5.20;;;1.17;;
68089;SDS011;54880;50.986;6.990;2023-07-31T12:09:17;3.63;;;1.00;;
68089;SDS011;54880;50.986;6.990;2023-07-31T12:11:43;3.83;;;1.10;;
68089;SDS011;54880;50.986;6.990;2023-07-31T12:14:18;4.82;;;1.40;;
68089;SDS011;54880;50.986;6.990;2023-07-31T12:16:44;4.45;;;1.38;;
68089;SDS011;54880;50.986;6.990;2023-07-31T12:19:09;5.13;;;1.20;;
68089;SDS011;54880;50.986;6.990;2023-07-31T12:21:34;4.40;;;1.20;;
68089;SDS011;54880;50.986;6.990;2023-07-31T12:23:59;4.07;;;1.30;;
68089;SDS011;54880;50.986;6.990;2023-07-31T12:26:25;4.57;;;1.30;;
68089;SDS011;54880;50.986;6.990;2023-07-31T12:28:58;4.35;;;1.20;;
68089;SDS011;54880;50.986;6.990;2023-07-31T12:31:23;6.50;;;1.20;;
68089;SDS011;54880;50.986;6.990;2023-07-31T12:33:52;5.40;;;1.40;;
68089;SDS011;54880;50.986;6.990;2023-07-31T12:36:18;4.43;;;1.17;;
68089;SDS011;54880;50.986;6.990;2023-07-31T12:38:45;5.20;;;1.27;;
68089;SDS011;54880;50.986;6.990;2023-07-31T12:41:10;5.00;;;1.20;;
68089;SDS011;54880;50.986;6.990;2023-07-31T12:43:39;5.33;;;1.50;;
68089;SDS011;54880;50.986;6.990;2023-07-31T12:46:05;5.30;;;1.63;;
68089;SDS011;54880;50.986;6.990;2023-07-31T12:48:32;5.57;;;1.70;;
68089;SDS011;54880;50.986;6.990;2023-07-31T12:50:58;4.80;;;1.43;;
68089;SDS011;54880;50.986;6.990;2023-07-31T12:53:23;6.93;;;1.63;;
68089;SDS011;54880;50.986;6.990;2023-07-31T12:55:48;5.40;;;1.43;;
68089;SDS011;54880;50.986;6.990;2023-07-31T12:58:13;4.90;;;1.67;;
68089;SDS011;54880;50.986;6.990;2023-07-31T13:00:39;6.10;;;2.00;;
68089;SDS011;54880;50.986;6.990;2023-07-31T13:03:04;5.73;;;1.60;;
68089;SDS011;54880;50.986;6.990;2023-07-31T13:05:29;5.47;;;1.80;;
68089;SDS011;54880;50.986;6.990;2023-07-31T13:07:55;4.88;;;1.45;;
68089;SDS011;54880;50.986;6.990;2023-07-31T13:10:21;5.90;;;2.13;;
68089;SDS011;54880;50.986;6.990;2023-07-31T13:12:46;6.18;;;2.00;;
68089;SDS011;54880;50.986;6.990;2023-07-31T13:15:12;6.13;;;2.20;;
68089;SDS011;54880;50.986;6.990;2023-07-31T13:17:37;6.73;;;2.23;;
68089;SDS011;54880;50.986;6.990;2023-07-31T13:20:03;6.63;;;2.20;;
68089;SDS011;54880;50.986;6.990;2023-07-31T13:22:28;6.47;;;2.30;;
68089;SDS011;54880;50.986;6.990;2023-07-31T13:24:54;5.83;;;2.00;;
68089;SDS011;54880;50.986;6.990;2023-07-31T13:27:19;5.90;;;2.00;;
68089;SDS011;54880;50.986;6.990;2023-07-31T13:29:46;6.00;;;2.17;;
68089;SDS011;54880;50.986;6.990;2023-07-31T13:32:12;5.90;;;1.97;;
68089;SDS011;54880;50.986;6.990;2023-07-31T13:34:37;6.00;;;2.23;;
68089;SDS011;54880;50.986;6.990;2023-07-31T13:37:02;7.50;;;2.30;;
68089;SDS011;54880;50.986;6.990;2023-07-31T13:39:28;7.10;;;2.23;;
68089;SDS011;54880;50.986;6.990;2023-07-31T13:41:53;6.97;;;2.43;;
68089;SDS011;54880;50.986;6.990;2023-07-31T13:44:18;10.10;;;1.93;;
68089;SDS011;54880;50.986;6.990;2023-07-31T13:46:44;6.22;;;2.22;;
68089;SDS011;54880;50.986;6.990;2023-07-31T13:49:09;5.70;;;2.10;;
68089;SDS011;54880;50.986;6.990;2023-07-31T13:51:34;6.03;;;1.93;;
68089;SDS011;54880;50.986;6.990;2023-07-31T13:54:00;6.87;;;2.10;;
68089;SDS011;54880;50.986;6.990;2023-07-31T13:56:26;6.40;;;2.05;;
68089;SDS011;54880;50.986;6.990;2023-07-31T13:58:51;6.15;;;2.10;;
68089;SDS011;54880;50.986;6.990;2023-07-31T14:01:16;5.57;;;2.00;;
68089;SDS011;54880;50.986;6.990;2023-07-31T14:03:42;7.27;;;1.83;;
68089;SDS011;54880;50.986;6.990;2023-07-31T14:06:07;6.30;;;2.33;;
68089;SDS011;54880;50.986;6.990;2023-07-31T14:08:32;6.13;;;2.00;;
68089;SDS011;54880;50.986;6.990;2023-07-31T14:10:57;7.00;;;2.60;;
68089;SDS011;54880;50.986;6.990;2023-07-31T14:13:23;8.03;;;2.57;;
68089;SDS011;54880;50.986;6.990;2023-07-31T14:15:48;7.40;;;2.50;;
68089;SDS011;54880;50.986;6.990;2023-07-31T14:18:13;6.40;;;2.30;;
68089;SDS011;54880;50.986;6.990;2023-07-31T14:20:38;8.63;;;2.03;;
68089;SDS011;54880;50.986;6.990;2023-07-31T14:23:04;7.23;;;2.77;;
68089;SDS011;54880;50.986;6.990;2023-07-31T14:25:29;7.43;;;2.23;;
68089;SDS011;54880;50.986;6.990;2023-07-31T14:27:54;8.93;;;2.47;;
68089;SDS011;54880;50.986;6.990;2023-07-31T14:30:20;6.63;;;2.30;;
68089;SDS011;54880;50.986;6.990;2023-07-31T14:32:45;7.50;;;2.10;;
68089;SDS011;54880;50.986;6.990;2023-07-31T14:35:10;6.82;;;2.10;;
68089;SDS011;54880;50.986;6.990;2023-07-31T14:37:36;7.97;;;2.30;;
68089;SDS011;54880;50.986;6.990;2023-07-31T14:40:01;6.60;;;2.63;;
68089;SDS011;54880;50.986;6.990;2023-07-31T14:42:26;7.13;;;2.40;;
68089;SDS011;54880;50.986;6.990;2023-07-31T14:44:52;5.83;;;2.13;;
68089;SDS011;54880;50.986;6.990;2023-07-31T14:47:17;7.20;;;2.50;;
68089;SDS011;54880;50.986;6.990;2023-07-31T14:49:42;6.10;;;2.40;;